createdAt,value
2018-07-27T07:53:10.956Z,41.40
2018-07-27T16:11:06.208Z,26.50
2018-07-27T16:13:37.114Z,26.10
2018-07-27T16:16:08.127Z,26.10
2018-07-27T16:18:39.055Z,26.00
2018-07-27T16:21:09.959Z,26.00
2018-07-27T16:23:40.855Z,25.90
2018-07-27T16:26:11.690Z,25.80
2018-07-27T16:28:43.571Z,25.60
2018-07-27T16:31:14.434Z,25.50
2018-07-27T16:33:45.412Z,25.40
2018-07-27T16:36:16.435Z,25.50
2018-07-27T16:41:17.626Z,25.50
2018-07-27T16:43:48.442Z,25.30
2018-07-27T16:46:19.314Z,25.30
2018-07-27T16:48:50.238Z,25.30
2018-07-27T16:51:21.164Z,25.50
2018-07-27T16:53:52.020Z,25.30
2018-07-27T16:56:22.878Z,25.30
2018-07-27T16:58:53.623Z,25.20
2018-07-27T17:01:24.444Z,25.20
2018-07-27T17:03:55.174Z,25.20
2018-07-27T17:06:25.917Z,25.20
2018-07-27T17:08:56.652Z,25.10
2018-07-27T17:11:27.757Z,25.10
2018-07-27T17:13:58.540Z,25.10
2018-07-27T17:16:29.517Z,25.10
2018-07-27T17:19:00.257Z,25.00
2018-07-27T17:21:31.058Z,25.00
2018-07-27T17:24:01.798Z,25.00
2018-07-27T17:29:03.010Z,24.70
2018-07-27T17:31:33.704Z,24.60
2018-07-27T17:34:04.371Z,24.60
2018-07-27T17:36:35.179Z,24.60
2018-07-27T17:39:09.962Z,24.50
2018-07-27T17:41:40.870Z,24.50
2018-07-27T17:44:11.628Z,24.40
2018-07-27T17:46:42.496Z,24.40
2018-07-27T17:49:13.800Z,24.40
2018-07-27T17:51:45.146Z,24.50
2018-07-27T17:54:15.859Z,24.40
2018-07-27T17:56:48.246Z,24.30
2018-07-27T17:59:18.944Z,24.30
2018-07-27T18:01:52.199Z,24.30
2018-07-27T18:04:22.930Z,24.30
2018-07-27T18:06:53.817Z,24.30
2018-07-27T18:09:27.325Z,24.30
2018-07-27T18:11:58.390Z,24.30
2018-07-27T18:14:29.476Z,24.20
2018-07-27T18:17:00.365Z,24.10
2018-07-27T18:19:31.241Z,24.10
2018-07-27T18:22:02.028Z,24.10
2018-07-27T18:24:33.653Z,24.00
2018-07-27T18:27:04.823Z,24.00
2018-07-27T18:29:35.540Z,23.90
2018-07-27T18:32:06.790Z,23.90
2018-07-27T18:34:37.512Z,23.80
2018-07-27T18:37:08.504Z,23.70
2018-07-27T18:39:39.330Z,23.70
2018-07-27T18:42:10.180Z,23.60
2018-07-27T18:44:42.069Z,23.60
2018-07-27T18:47:12.921Z,23.60
2018-07-27T18:49:43.893Z,23.60
2018-07-27T18:52:14.828Z,23.50
2018-07-27T18:54:46.187Z,23.60
2018-07-27T18:57:17.182Z,23.60
2018-07-27T18:59:47.989Z,23.60
2018-07-27T19:02:23.944Z,23.50
2018-07-27T19:04:55.143Z,23.50
2018-07-27T19:07:26.189Z,23.40
2018-07-27T19:10:01.639Z,23.40
2018-07-27T19:12:35.165Z,23.40
2018-07-27T19:15:12.604Z,23.30
2018-07-27T19:17:45.284Z,23.30
2018-07-27T19:20:16.128Z,23.20
2018-07-27T19:22:50.185Z,23.20
2018-07-27T19:25:35.636Z,23.20
2018-07-27T19:50:53.849Z,22.80
2018-07-27T20:12:42.765Z,22.60
2018-07-27T20:15:22.542Z,22.40
2018-07-27T20:17:55.840Z,22.40
2018-07-27T20:20:35.360Z,22.40
2018-07-27T20:23:11.883Z,22.30
2018-07-27T20:28:25.149Z,22.20
2018-07-27T20:31:00.412Z,22.20
2018-07-27T20:33:33.067Z,22.10
2018-07-27T20:36:13.854Z,22.00
2018-07-27T20:38:48.251Z,22.10
2018-07-27T20:41:25.188Z,22.10
2018-07-27T20:44:29.955Z,22.00
2018-07-27T20:49:43.733Z,21.90
2018-07-27T20:52:14.745Z,21.80
2018-07-27T20:55:00.018Z,21.80
2018-07-27T21:01:07.058Z,21.90
2018-07-27T21:03:41.852Z,21.90
2018-07-27T21:08:45.631Z,21.60
2018-07-27T21:11:16.628Z,21.60
2018-07-27T21:13:48.421Z,21.50
2018-07-27T21:16:21.571Z,21.60
2018-07-27T21:18:52.704Z,21.60
2018-07-27T21:21:23.717Z,21.60
2018-07-27T21:23:54.750Z,21.60
2018-07-27T21:26:32.011Z,21.60
2018-07-27T21:29:08.536Z,21.60
2018-07-27T21:32:12.144Z,21.60
2018-07-27T21:34:46.774Z,21.60
2018-07-27T21:37:17.982Z,21.50
2018-07-27T21:39:49.033Z,21.50
2018-07-27T21:42:21.499Z,21.50
2018-07-27T21:44:52.864Z,21.50
2018-07-27T21:47:23.774Z,21.40
2018-07-27T21:49:54.655Z,21.30
2018-07-27T21:52:25.689Z,21.30
2018-07-27T21:57:27.066Z,21.30
2018-07-27T22:02:29.408Z,21.30
2018-07-27T22:05:00.572Z,21.30
2018-07-27T22:07:31.598Z,21.20
2018-07-27T22:10:02.507Z,21.20
2018-07-27T22:12:34.806Z,21.20
2018-07-27T22:15:17.536Z,21.20
2018-07-27T22:17:53.621Z,21.20
2018-07-27T22:30:50.460Z,21.20
2018-07-27T22:33:21.587Z,21.20
2018-07-27T22:35:52.787Z,21.00
2018-07-27T22:38:23.780Z,21.00
2018-07-27T22:44:16.246Z,21.00
2018-07-27T22:46:47.531Z,20.80
2018-07-27T22:49:22.368Z,20.80
2018-07-27T22:51:54.176Z,20.80
2018-07-27T22:54:25.198Z,20.80
2018-07-27T22:56:56.371Z,20.70
2018-07-27T22:59:27.365Z,20.80
2018-07-27T23:01:58.464Z,20.70
2018-07-27T23:04:29.694Z,20.60
2018-07-27T23:07:00.968Z,20.60
2018-07-27T23:09:32.106Z,20.60
2018-07-27T23:12:03.041Z,20.60
2018-07-27T23:14:33.936Z,20.60
2018-07-27T23:17:05.250Z,20.60
2018-07-27T23:19:36.223Z,20.60
2018-07-27T23:22:07.361Z,20.60
2018-07-27T23:24:38.263Z,20.60
2018-07-27T23:27:09.285Z,20.50
2018-07-27T23:29:40.224Z,20.50
2018-07-27T23:32:11.153Z,20.50
2018-07-27T23:34:42.007Z,20.50
2018-07-27T23:37:12.944Z,20.50
2018-07-27T23:39:43.839Z,20.50
2018-07-27T23:42:14.709Z,20.50
2018-07-27T23:44:45.604Z,20.40
2018-07-27T23:47:16.620Z,20.40
2018-07-27T23:52:17.953Z,20.40
2018-07-27T23:54:49.207Z,20.40
2018-07-27T23:57:20.304Z,20.40
2018-07-27T23:59:51.414Z,20.40
